createdAt,value
2018-11-23T00:00:27.502Z,58.70
2018-11-23T00:02:56.499Z,62.17
2018-11-23T00:05:24.639Z,67.93
2018-11-23T00:07:53.368Z,72.13
2018-11-23T00:10:22.867Z,78.43
2018-11-23T00:12:51.105Z,85.73
2018-11-23T00:15:20.444Z,86.07
2018-11-23T00:17:48.631Z,75.77
2018-11-23T00:20:19.042Z,80.17
2018-11-23T00:22:47.195Z,84.23
2018-11-23T00:25:17.545Z,75.73
2018-11-23T00:27:45.828Z,83.93
2018-11-23T00:30:19.112Z,77.53
2018-11-23T00:32:47.614Z,82.27
2018-11-23T00:35:18.454Z,82.27
2018-11-23T00:37:47.127Z,86.20
2018-11-23T00:40:19.300Z,77.20
2018-11-23T00:42:47.598Z,83.40
2018-11-23T00:45:15.775Z,89.23
2018-11-23T00:47:44.731Z,75.17
2018-11-23T00:50:14.181Z,66.67
2018-11-23T00:52:42.928Z,76.07
2018-11-23T00:55:12.951Z,81.23
2018-11-23T00:57:41.175Z,76.83
2018-11-23T01:00:18.004Z,70.87
2018-11-23T01:02:46.378Z,70.23
2018-11-23T01:05:15.995Z,66.27
2018-11-23T01:07:44.673Z,79.90
2018-11-23T01:10:13.980Z,70.57
2018-11-23T01:12:42.863Z,75.13
2018-11-23T01:15:11.559Z,61.97
2018-11-23T01:17:39.762Z,74.13
2018-11-23T01:20:14.571Z,77.10
2018-11-23T01:22:42.939Z,77.83
2018-11-23T01:25:12.524Z,78.23
2018-11-23T01:27:41.559Z,74.93
2018-11-23T01:30:19.257Z,77.77
2018-11-23T01:32:47.512Z,61.77
2018-11-23T01:35:15.805Z,75.97
2018-11-23T01:37:43.975Z,79.43
2018-11-23T01:40:14.703Z,86.00
2018-11-23T01:42:42.903Z,91.30
2018-11-23T01:45:11.712Z,92.70
2018-11-23T01:47:39.877Z,86.30
2018-11-23T01:50:12.742Z,84.80
2018-11-23T01:52:40.895Z,86.07
2018-11-23T01:55:10.118Z,74.43
2018-11-23T01:57:38.991Z,84.30
2018-11-23T02:00:08.799Z,68.77
2018-11-23T02:02:36.934Z,76.97
2018-11-23T02:05:05.495Z,66.67
2018-11-23T02:07:33.642Z,82.37
2018-11-23T02:10:01.790Z,90.30
2018-11-23T02:12:29.938Z,82.47
2018-11-23T02:14:58.074Z,48.20
2018-11-23T02:17:26.231Z,61.57
2018-11-23T02:19:56.138Z,38.87
2018-11-23T02:22:24.294Z,77.50
2018-11-23T02:24:52.805Z,72.20
2018-11-23T02:27:21.290Z,70.00
2018-11-23T02:29:49.448Z,61.83
2018-11-23T02:32:17.690Z,72.33
2018-11-23T02:34:45.831Z,83.47
2018-11-23T02:37:14.199Z,84.17
2018-11-23T02:39:42.376Z,81.90
2018-11-23T02:42:10.503Z,59.23
2018-11-23T02:44:38.618Z,80.23
2018-11-23T02:47:06.938Z,82.20
2018-11-23T02:49:35.262Z,87.80
2018-11-23T02:52:03.390Z,80.73
2018-11-23T02:54:31.897Z,72.50
2018-11-23T02:57:00.036Z,92.83
2018-11-23T02:59:28.282Z,85.73
2018-11-23T03:01:56.522Z,71.67
2018-11-23T03:04:24.638Z,87.07
2018-11-23T03:06:52.774Z,104.03
2018-11-23T03:09:20.895Z,87.00
2018-11-23T03:11:49.037Z,87.23
2018-11-23T03:14:17.158Z,74.27
2018-11-23T03:16:45.290Z,83.73
2018-11-23T03:19:13.435Z,98.23
2018-11-23T03:21:41.615Z,90.63
2018-11-23T03:24:09.759Z,101.77
2018-11-23T03:26:37.891Z,87.33
2018-11-23T03:29:06.275Z,82.97
2018-11-23T03:31:34.394Z,95.03
2018-11-23T03:34:02.537Z,65.57
2018-11-23T03:36:30.697Z,102.97
2018-11-23T03:38:58.867Z,104.40
2018-11-23T03:41:27.051Z,97.53
2018-11-23T03:43:55.224Z,99.17
2018-11-23T03:46:23.374Z,91.70
2018-11-23T03:48:51.535Z,98.13
2018-11-23T03:51:19.691Z,107.40
2018-11-23T03:53:47.856Z,106.33
2018-11-23T03:56:16.008Z,95.27
2018-11-23T03:58:44.167Z,89.27
2018-11-23T04:01:12.323Z,71.23
2018-11-23T04:03:40.486Z,66.10
2018-11-23T04:06:08.636Z,98.70
2018-11-23T04:08:36.795Z,90.33
2018-11-23T04:11:05.165Z,96.70
2018-11-23T04:13:33.323Z,92.53
2018-11-23T04:16:01.485Z,75.30
2018-11-23T04:18:29.648Z,85.33
2018-11-23T04:21:02.863Z,67.80
2018-11-23T04:23:32.291Z,90.30
2018-11-23T04:26:00.439Z,89.17
2018-11-23T04:28:28.603Z,104.30
2018-11-23T04:30:57.000Z,107.63
2018-11-23T04:33:25.683Z,108.67
2018-11-23T04:35:54.076Z,77.87
2018-11-23T04:38:22.443Z,93.20
2018-11-23T04:40:50.617Z,91.40
2018-11-23T04:43:18.796Z,93.80
2018-11-23T04:45:47.020Z,74.73
2018-11-23T04:48:15.226Z,92.23
2018-11-23T04:50:43.435Z,95.03
2018-11-23T04:53:11.602Z,98.70
2018-11-23T04:55:39.783Z,102.40
2018-11-23T04:58:08.047Z,90.70
2018-11-23T05:00:36.218Z,72.67
2018-11-23T05:03:04.398Z,85.83
2018-11-23T05:05:32.589Z,65.93
2018-11-23T05:08:00.755Z,93.30
2018-11-23T05:10:28.955Z,84.27
2018-11-23T05:12:57.119Z,96.27
2018-11-23T05:15:25.299Z,90.20
2018-11-23T05:17:53.505Z,103.57
2018-11-23T05:20:21.684Z,103.80
2018-11-23T05:22:49.851Z,96.03
2018-11-23T05:25:19.008Z,89.33
2018-11-23T05:27:47.178Z,91.93
2018-11-23T05:30:19.669Z,104.90
2018-11-23T05:32:47.840Z,91.30
2018-11-23T05:35:16.811Z,88.90
2018-11-23T05:37:45.023Z,116.47
2018-11-23T05:40:15.110Z,96.23
2018-11-23T05:42:43.275Z,65.50
2018-11-23T05:45:13.759Z,93.23
2018-11-23T05:47:41.931Z,134.10
2018-11-23T05:50:13.749Z,87.03
2018-11-23T05:52:42.851Z,96.17
2018-11-23T05:55:11.635Z,91.57
2018-11-23T05:57:40.123Z,86.37
2018-11-23T06:00:11.770Z,89.10
2018-11-23T06:02:39.923Z,91.33
2018-11-23T06:05:08.547Z,82.33
2018-11-23T06:07:36.747Z,76.07
2018-11-23T06:10:06.856Z,76.37
2018-11-23T06:12:35.099Z,67.77
2018-11-23T06:15:03.383Z,77.37
2018-11-23T06:17:31.555Z,76.43
2018-11-23T06:19:59.704Z,70.47
2018-11-23T06:22:27.887Z,68.63
2018-11-23T06:24:56.035Z,73.63
2018-11-23T06:27:24.267Z,68.13
2018-11-23T06:29:52.419Z,67.17
2018-11-23T06:32:32.091Z,75.67
2018-11-23T06:35:00.239Z,69.10
2018-11-23T06:37:28.395Z,67.77
2018-11-23T06:39:56.555Z,69.43
2018-11-23T06:42:24.778Z,57.80
2018-11-23T06:44:52.963Z,63.20
2018-11-23T06:47:21.259Z,66.23
2018-11-23T06:49:49.442Z,67.13
2018-11-23T06:52:17.611Z,55.67
2018-11-23T06:54:46.016Z,63.27
2018-11-23T06:57:14.219Z,69.27
2018-11-23T06:59:42.391Z,77.13
2018-11-23T07:02:10.555Z,66.10
2018-11-23T07:04:38.736Z,66.90
2018-11-23T07:07:06.911Z,66.30
2018-11-23T07:09:35.087Z,56.87
2018-11-23T07:12:03.295Z,60.63
2018-11-23T07:14:31.474Z,60.97
2018-11-23T07:16:59.643Z,73.17
2018-11-23T07:19:27.823Z,62.17
2018-11-23T07:21:56.095Z,64.73
2018-11-23T07:24:24.276Z,55.77
2018-11-23T07:26:52.436Z,62.13
2018-11-23T07:29:20.632Z,66.57
2018-11-23T07:31:48.800Z,63.33
2018-11-23T07:34:16.969Z,65.50
2018-11-23T07:36:45.152Z,52.63
2018-11-23T07:40:23.762Z,61.23
2018-11-23T07:42:52.246Z,65.47
2018-11-23T07:45:20.519Z,54.00
2018-11-23T07:47:48.680Z,62.20
2018-11-23T07:50:16.843Z,59.77
2018-11-23T07:52:45.007Z,55.37
2018-11-23T07:55:13.640Z,59.40
2018-11-23T07:57:42.021Z,53.90
2018-11-23T08:00:13.879Z,57.33
2018-11-23T08:02:42.447Z,60.27
2018-11-23T08:05:12.463Z,49.40
2018-11-23T08:07:40.633Z,52.07
2018-11-23T08:10:10.530Z,61.90
2018-11-23T08:12:39.351Z,61.27
2018-11-23T08:15:13.953Z,55.03
2018-11-23T08:17:42.163Z,59.37
2018-11-23T08:20:12.376Z,58.57
2018-11-23T08:22:40.859Z,55.37
2018-11-23T08:25:10.346Z,50.67
2018-11-23T08:27:38.847Z,64.97
2018-11-23T08:30:10.763Z,57.50
2018-11-23T08:32:39.053Z,56.47
2018-11-23T08:35:07.247Z,54.73
2018-11-23T08:37:35.459Z,53.83
2018-11-23T08:40:04.011Z,49.77
2018-11-23T08:42:32.180Z,53.03
2018-11-23T08:45:00.448Z,54.20
2018-11-23T08:47:28.606Z,56.57
2018-11-23T08:49:56.755Z,44.43
2018-11-23T08:52:25.043Z,56.40
2018-11-23T08:54:53.255Z,54.07
2018-11-23T08:57:21.432Z,49.73
2018-11-23T08:59:49.579Z,50.77
2018-11-23T09:02:17.823Z,51.20
2018-11-23T09:04:45.999Z,47.20
2018-11-23T09:07:14.167Z,50.67
2018-11-23T09:09:42.327Z,50.83
2018-11-23T09:12:10.471Z,56.10
2018-11-23T09:14:38.631Z,52.43
2018-11-23T09:17:06.796Z,51.37
2018-11-23T09:19:35.105Z,49.50
2018-11-23T09:22:03.277Z,50.70
2018-11-23T09:24:31.435Z,43.03
2018-11-23T09:26:59.631Z,46.10
2018-11-23T09:29:27.839Z,50.73
2018-11-23T09:31:56.182Z,33.23
2018-11-23T09:34:24.393Z,45.07
2018-11-23T09:36:52.542Z,48.20
2018-11-23T09:39:20.695Z,65.77
2018-11-23T09:41:48.867Z,69.27
2018-11-23T09:44:17.156Z,48.97
2018-11-23T09:46:45.319Z,46.70
2018-11-23T09:49:13.507Z,44.27
2018-11-23T09:51:41.823Z,42.03
2018-11-23T09:54:09.995Z,43.33
2018-11-23T09:56:38.206Z,39.17
2018-11-23T09:59:06.391Z,39.13
2018-11-23T10:01:34.547Z,39.73
2018-11-23T10:04:02.732Z,33.23
2018-11-23T10:06:30.892Z,35.80
2018-11-23T10:08:59.065Z,32.80
2018-11-23T10:11:27.223Z,35.20
2018-11-23T10:13:55.395Z,38.77
2018-11-23T10:16:23.555Z,38.73
2018-11-23T10:18:51.830Z,34.73
2018-11-23T10:21:19.987Z,35.43
2018-11-23T10:23:48.183Z,33.37
2018-11-23T10:26:16.347Z,36.47
2018-11-23T10:28:44.518Z,42.30
2018-11-23T10:31:12.685Z,39.63
2018-11-23T10:33:40.859Z,40.70
2018-11-23T10:36:09.051Z,37.93
2018-11-23T10:38:37.235Z,32.03
2018-11-23T10:41:05.719Z,39.33
2018-11-23T10:43:34.433Z,38.07
2018-11-23T10:46:03.417Z,33.37
2018-11-23T10:48:31.600Z,39.60
2018-11-23T10:50:59.802Z,42.17
2018-11-23T10:53:27.947Z,41.03
2018-11-23T10:55:56.143Z,39.17
2018-11-23T10:58:24.358Z,37.37
2018-11-23T11:00:57.952Z,37.20
2018-11-23T11:03:32.596Z,36.80
2018-11-23T11:06:08.235Z,40.77
2018-11-23T11:08:36.399Z,37.43
2018-11-23T11:11:05.048Z,41.67
2018-11-23T11:13:33.336Z,36.67
2018-11-23T11:16:01.620Z,42.23
2018-11-23T11:18:29.822Z,40.47
2018-11-23T11:20:58.615Z,36.67
2018-11-23T11:23:26.759Z,38.53
2018-11-23T11:25:54.963Z,32.40
2018-11-23T11:28:23.380Z,42.93
2018-11-23T11:30:51.620Z,39.23
2018-11-23T11:33:19.895Z,38.63
2018-11-23T11:35:48.051Z,53.67
2018-11-23T11:38:16.344Z,46.40
2018-11-23T11:40:44.530Z,42.63
2018-11-23T11:43:12.699Z,33.43
2018-11-23T11:45:40.890Z,34.07
2018-11-23T11:48:09.055Z,37.57
2018-11-23T11:50:37.213Z,37.23
2018-11-23T11:53:05.591Z,33.90
2018-11-23T11:55:33.765Z,25.90
2018-11-23T11:58:01.979Z,33.63
2018-11-23T12:00:30.147Z,23.53
2018-11-23T12:02:58.319Z,32.83
2018-11-23T12:05:26.487Z,34.87
2018-11-23T12:07:54.871Z,33.53
2018-11-23T12:10:24.779Z,35.50
2018-11-23T12:12:53.080Z,33.50
2018-11-23T12:15:21.348Z,36.23
2018-11-23T12:17:49.523Z,38.33
2018-11-23T12:20:19.219Z,30.77
2018-11-23T12:22:47.824Z,39.57
2018-11-23T12:25:16.182Z,40.57
2018-11-23T12:27:44.347Z,38.17
2018-11-23T12:30:14.575Z,39.50
2018-11-23T12:32:43.582Z,35.33
2018-11-23T12:35:13.743Z,33.27
2018-11-23T12:37:41.987Z,31.43
2018-11-23T12:40:11.963Z,37.43
2018-11-23T12:42:40.283Z,37.47
2018-11-23T12:45:10.291Z,37.50
2018-11-23T12:47:38.564Z,35.93
2018-11-23T12:50:09.319Z,39.87
2018-11-23T12:52:37.578Z,39.63
2018-11-23T12:55:09.287Z,36.60
2018-11-23T12:57:37.459Z,40.87
2018-11-23T13:00:09.552Z,35.27
2018-11-23T13:02:37.715Z,35.10
2018-11-23T13:05:06.259Z,37.20
2018-11-23T13:07:34.431Z,34.03
2018-11-23T13:10:02.599Z,30.47
2018-11-23T13:12:30.819Z,32.57
2018-11-23T13:14:58.992Z,31.00
2018-11-23T13:17:27.200Z,30.43
2018-11-23T13:19:55.371Z,36.70
2018-11-23T13:22:23.527Z,31.53
2018-11-23T13:24:51.950Z,35.00
2018-11-23T13:27:20.103Z,33.00
2018-11-23T13:29:48.403Z,33.60
2018-11-23T13:32:16.975Z,31.23
2018-11-23T13:34:45.163Z,32.57
2018-11-23T13:37:13.527Z,33.50
2018-11-23T13:39:41.924Z,34.73
2018-11-23T13:42:10.130Z,34.60
2018-11-23T13:44:38.320Z,34.80
2018-11-23T13:47:06.758Z,32.40
2018-11-23T13:49:34.952Z,33.17
2018-11-23T13:52:03.124Z,36.93
2018-11-23T13:54:31.299Z,37.03
2018-11-23T13:56:59.470Z,39.00
2018-11-23T13:59:27.649Z,39.00
2018-11-23T14:01:55.896Z,40.97
2018-11-23T14:04:24.071Z,36.77
2018-11-23T14:06:52.550Z,40.77
2018-11-23T14:09:20.731Z,44.33
2018-11-23T14:11:48.900Z,41.17
2018-11-23T14:14:17.087Z,37.93
2018-11-23T14:16:45.259Z,41.17
2018-11-23T14:19:13.457Z,42.47
2018-11-23T14:21:41.866Z,38.07
2018-11-23T14:24:10.040Z,39.77
2018-11-23T14:26:38.214Z,51.27
2018-11-23T14:29:06.691Z,36.10
2018-11-23T14:31:34.875Z,38.60
2018-11-23T14:34:03.056Z,49.67
2018-11-23T14:36:31.243Z,44.50
2018-11-23T14:38:59.413Z,41.00
2018-11-23T14:41:27.593Z,44.63
2018-11-23T14:43:55.755Z,39.83
2018-11-23T14:46:23.919Z,40.00
2018-11-23T14:48:52.075Z,41.57
2018-11-23T14:51:20.242Z,39.17
2018-11-23T14:53:48.395Z,38.97
2018-11-23T14:56:16.561Z,47.77
2018-11-23T14:58:44.723Z,45.80
2018-11-23T15:01:12.888Z,39.57
2018-11-23T15:03:41.039Z,39.47
2018-11-23T15:06:09.251Z,43.87
2018-11-23T15:08:37.483Z,40.37
2018-11-23T15:11:06.152Z,45.53
2018-11-23T15:13:34.300Z,39.90
2018-11-23T15:16:02.463Z,43.83
2018-11-23T15:18:30.617Z,48.63
2018-11-23T15:20:58.791Z,42.57
2018-11-23T15:23:26.943Z,44.43
2018-11-23T15:25:55.147Z,45.00
2018-11-23T15:28:23.299Z,48.53
2018-11-23T15:30:51.463Z,47.57
2018-11-23T15:33:19.629Z,48.00
2018-11-23T15:35:47.979Z,47.90
2018-11-23T15:38:17.784Z,48.23
2018-11-23T15:40:45.959Z,43.60
2018-11-23T15:43:15.155Z,44.47
2018-11-23T15:45:43.320Z,35.53
2018-11-23T15:48:12.029Z,45.33
2018-11-23T15:50:41.114Z,42.73
2018-11-23T15:53:10.552Z,44.37
2018-11-23T15:55:39.351Z,46.30
2018-11-23T15:58:09.027Z,46.37
2018-11-23T16:00:38.518Z,45.80
2018-11-23T16:03:08.230Z,40.97
2018-11-23T16:05:36.499Z,44.47
2018-11-23T16:08:06.467Z,47.03
2018-11-23T16:10:35.831Z,43.50
2018-11-23T16:13:11.133Z,59.77
2018-11-23T16:15:33.622Z,50.87
2018-11-23T16:18:02.209Z,60.87
2018-11-23T16:20:32.523Z,54.93
2018-11-23T16:23:05.935Z,53.77
2018-11-23T16:25:34.403Z,58.77
2018-11-23T16:28:03.919Z,57.83
2018-11-23T16:30:34.335Z,57.67
2018-11-23T16:33:03.620Z,61.10
2018-11-23T16:35:35.093Z,54.30
2018-11-23T16:38:04.910Z,57.53
2018-11-23T16:40:34.411Z,62.90
2018-11-23T16:43:03.207Z,64.50
2018-11-23T16:45:35.572Z,63.87
2018-11-23T16:48:05.197Z,66.63
2018-11-23T16:50:33.467Z,59.37
2018-11-23T16:53:02.169Z,65.37
2018-11-23T16:55:30.623Z,59.77
2018-11-23T16:58:00.932Z,65.80
2018-11-23T17:00:30.264Z,65.37
2018-11-23T17:02:59.758Z,63.60
2018-11-23T17:05:31.432Z,70.27
2018-11-23T17:07:59.699Z,79.13
2018-11-23T17:10:27.876Z,76.30
2018-11-23T17:12:56.035Z,71.53
2018-11-23T17:15:25.668Z,66.67
2018-11-23T17:17:53.827Z,72.10
2018-11-23T17:20:23.444Z,71.10
2018-11-23T17:22:52.735Z,77.47
2018-11-23T17:25:21.839Z,66.37
2018-11-23T17:27:50.548Z,75.50
2018-11-23T17:30:20.235Z,82.70
2018-11-23T17:32:48.391Z,104.17
2018-11-23T17:35:16.562Z,103.93
2018-11-23T17:37:44.721Z,131.47
2018-11-23T17:40:14.589Z,88.23
2018-11-23T17:42:42.820Z,94.17
2018-11-23T17:45:16.459Z,82.53
2018-11-23T17:47:44.631Z,77.33
2018-11-23T17:50:15.571Z,80.67
2018-11-23T17:52:44.039Z,60.67
2018-11-23T17:55:36.779Z,79.60
2018-11-23T17:58:05.203Z,93.70
2018-11-23T18:00:38.855Z,78.80
2018-11-23T18:03:03.235Z,83.13
2018-11-23T18:05:32.339Z,89.63
2018-11-23T18:08:01.120Z,70.60
2018-11-23T18:10:30.540Z,87.67
2018-11-23T18:12:59.412Z,77.87
2018-11-23T18:15:28.833Z,72.00
2018-11-23T18:17:57.917Z,82.33
2018-11-23T18:20:27.124Z,82.23
2018-11-23T18:22:56.212Z,79.30
2018-11-23T18:25:26.651Z,82.13
2018-11-23T18:28:00.113Z,77.40
2018-11-23T18:30:29.393Z,91.90
2018-11-23T18:32:57.597Z,70.63
2018-11-23T18:35:25.775Z,108.10
2018-11-23T18:37:53.975Z,80.57
2018-11-23T18:40:22.160Z,85.23
2018-11-23T18:42:50.348Z,73.93
2018-11-23T18:45:18.523Z,74.43
2018-11-23T18:47:46.704Z,79.83
2018-11-23T18:50:16.968Z,77.93
2018-11-23T18:52:45.143Z,74.13
2018-11-23T18:55:18.219Z,77.20
2018-11-23T18:57:42.403Z,76.03
2018-11-23T19:00:17.248Z,75.10
2018-11-23T19:02:46.515Z,71.43
2018-11-23T19:05:23.064Z,73.43
2018-11-23T19:07:51.239Z,77.83
2018-11-23T19:10:19.423Z,75.77
2018-11-23T19:12:47.605Z,78.20
2018-11-23T19:15:25.273Z,53.63
2018-11-23T19:17:45.947Z,73.07
2018-11-23T19:20:16.024Z,75.53
2018-11-23T19:22:48.071Z,73.10
2018-11-23T19:25:16.245Z,75.50
2018-11-23T19:27:44.435Z,75.23
2018-11-23T19:30:13.823Z,78.00
2018-11-23T19:32:42.004Z,81.17
2018-11-23T19:35:10.171Z,91.30
2018-11-23T19:37:38.851Z,79.27
2018-11-23T19:40:09.594Z,83.27
2018-11-23T19:42:37.778Z,74.93
2018-11-23T19:45:07.611Z,74.50
2018-11-23T19:47:35.771Z,80.53
2018-11-23T19:50:04.368Z,68.90
2018-11-23T19:52:32.535Z,74.97
2018-11-23T19:55:00.726Z,71.97
2018-11-23T19:57:28.891Z,71.07
2018-11-23T19:59:57.077Z,69.93
2018-11-23T20:02:25.240Z,72.50
2018-11-23T20:04:53.415Z,72.07
2018-11-23T20:07:21.587Z,79.50
2018-11-23T20:09:49.768Z,78.57
2018-11-23T20:12:17.936Z,72.00
2018-11-23T20:14:46.114Z,70.07
2018-11-23T20:17:14.283Z,55.30
2018-11-23T20:19:42.451Z,78.27
2018-11-23T20:22:10.619Z,69.30
2018-11-23T20:24:38.791Z,66.73
2018-11-23T20:27:06.951Z,70.43
2018-11-23T20:29:35.486Z,79.80
2018-11-23T20:32:03.356Z,80.67
2018-11-23T20:34:31.500Z,45.03
2018-11-23T20:36:59.666Z,83.13
2018-11-23T20:39:27.844Z,90.50
2018-11-23T20:41:56.018Z,86.90
2018-11-23T20:44:24.219Z,84.27
2018-11-23T20:46:52.411Z,83.70
2018-11-23T20:49:20.600Z,81.17
2018-11-23T20:51:48.779Z,91.30
2018-11-23T20:54:16.966Z,83.87
2018-11-23T20:56:45.153Z,84.40
2018-11-23T20:59:13.355Z,82.67
2018-11-23T21:01:41.530Z,85.43
2018-11-23T21:04:09.716Z,91.70
2018-11-23T21:06:37.900Z,86.00
2018-11-23T21:09:09.121Z,87.33
2018-11-23T21:11:37.343Z,83.80
2018-11-23T21:14:06.089Z,90.73
2018-11-23T21:16:34.286Z,85.93
2018-11-23T21:19:02.475Z,91.07
2018-11-23T21:21:30.668Z,83.07
2018-11-23T21:23:58.852Z,82.23
2018-11-23T21:26:27.045Z,84.80
2018-11-23T21:28:55.223Z,84.10
2018-11-23T21:31:23.424Z,81.43
2018-11-23T21:33:51.611Z,78.27
2018-11-23T21:36:19.803Z,87.03
2018-11-23T21:38:47.983Z,87.87
2018-11-23T21:41:16.167Z,88.27
2018-11-23T21:43:44.343Z,76.33
2018-11-23T21:46:12.520Z,79.20
2018-11-23T21:48:40.679Z,76.37
2018-11-23T21:51:08.855Z,76.93
2018-11-23T21:53:37.025Z,76.07
2018-11-23T21:56:09.462Z,74.90
2018-11-23T21:58:33.654Z,79.90
2018-11-23T22:01:01.893Z,87.10
2018-11-23T22:03:30.155Z,79.00
2018-11-23T22:05:58.340Z,81.33
2018-11-23T22:08:26.506Z,75.70
2018-11-23T22:10:54.675Z,80.53
2018-11-23T22:13:22.856Z,78.40
2018-11-23T22:15:51.035Z,71.03
2018-11-23T22:18:19.223Z,66.90
2018-11-23T22:20:47.390Z,76.63
2018-11-23T22:23:15.571Z,75.73
2018-11-23T22:25:43.745Z,77.83
2018-11-23T22:28:11.931Z,71.50
2018-11-23T22:30:40.096Z,77.00
2018-11-23T22:33:08.267Z,74.87
2018-11-23T22:35:36.439Z,73.27
2018-11-23T22:38:04.745Z,76.73
2018-11-23T22:40:32.911Z,74.10
2018-11-23T22:43:01.098Z,75.93
2018-11-23T22:45:29.260Z,78.53
2018-11-23T22:47:57.433Z,71.23
2018-11-23T22:50:25.636Z,68.70
2018-11-23T22:52:53.868Z,76.20
2018-11-23T22:55:22.033Z,72.13
2018-11-23T22:57:50.215Z,76.67
2018-11-23T23:00:26.004Z,73.87
2018-11-23T23:02:54.187Z,76.00
2018-11-23T23:05:23.361Z,72.53
2018-11-23T23:07:51.584Z,75.70
2018-11-23T23:10:19.812Z,74.13
2018-11-23T23:12:48.092Z,72.67
2018-11-23T23:15:16.352Z,77.10
2018-11-23T23:17:44.737Z,73.23
2018-11-23T23:20:15.181Z,52.97
2018-11-23T23:22:43.339Z,73.00
2018-11-23T23:25:12.144Z,72.70
2018-11-23T23:27:40.310Z,69.50
2018-11-23T23:30:10.878Z,71.03
2018-11-23T23:32:39.343Z,71.97
2018-11-23T23:35:08.752Z,76.40
2018-11-23T23:37:37.108Z,68.93
2018-11-23T23:40:07.883Z,72.90
2018-11-23T23:42:36.062Z,70.87
2018-11-23T23:45:04.812Z,71.60
2018-11-23T23:47:32.971Z,69.43
2018-11-23T23:50:01.155Z,67.60
2018-11-23T23:52:29.327Z,73.70
2018-11-23T23:54:57.483Z,74.87
2018-11-23T23:57:25.647Z,71.17
2018-11-23T23:59:53.800Z,70.20
